Portada
METAR-TAF:

METAR-TAF

Aeropuertos :

Aeropuerto de Gibraltar

Gibraltar, Gibraltar

latitud: 36-09N, longitud: 005-21W, altitud: 5 m

Observación

El informe se hizo hace 1 hora y 7 minutos, a las 20:50 UTC
Viento 7 kt del oeste-suroeste
Temperatura 19°C
Humedad 52%
Presión 1019 hPa
Visibilidad 10 km o más

METAR: LXGB 162050Z AUTO 25007KT 9999 // NCD 19/09 Q1019

Hora: 23:57 (21:57 UTC)

Pronóstico

El informe se hizo hace 5 horas y 22 minutos, a las 16:35 UTC
Pronóstico válido del 16 a las 18 UTC al 16 a las 22 UTC
Viento 8 kt del suroeste
Visibilidad 10 km o más
sin nubes por debajo de 1500 m y sin presencia de cumulonimbus.

TAF: LXGB 161635Z 1618/1622 23008KT CAVOK

Observaciones y pronósticos meteorológicos de más de 4000 aeropuertos (mensajes METAR y TAF).

Los puntos amarillos y rojos representan las estaciones disponibles.

Ponga el ratón en el punto deseado para ver el nombre de la estación.

Haga clic para ver las observaciones y los pronósticos meteorológicos.

Para cambiar el mapa : haga clic en los botones verdes con una cruz de color negro para hacer un zoom, en el botón verde con un guión para alejar o en las flechas verdes para mapas adyacentes.


METAR-TAF: